createdAt,value
2023-02-16T00:02:17.605Z,42.90
2023-02-16T00:04:45.798Z,42.90
2023-02-16T00:07:14.063Z,43.50
2023-02-16T00:09:42.227Z,43.60
2023-02-16T00:12:39.112Z,44.60
2023-02-16T00:15:17.212Z,44.20
2023-02-16T00:17:45.348Z,44.80
2023-02-16T00:20:19.131Z,45.70
2023-02-16T00:22:47.289Z,45.30
2023-02-16T00:25:15.793Z,44.10
2023-02-16T00:27:45.540Z,43.60
2023-02-16T00:30:16.676Z,43.60
2023-02-16T00:32:44.971Z,43.60
2023-02-16T00:35:18.944Z,43.20
2023-02-16T00:37:47.820Z,43.30
2023-02-16T00:40:18.907Z,43.10
2023-02-16T00:42:49.052Z,43.00
2023-02-16T00:45:19.985Z,42.50
2023-02-16T00:47:51.229Z,42.30
2023-02-16T00:50:28.506Z,41.80
2023-02-16T00:52:58.371Z,41.70
2023-02-16T00:55:29.423Z,42.20
2023-02-16T00:58:06.167Z,43.40
2023-02-16T01:00:37.172Z,43.90
2023-02-16T01:03:08.806Z,44.40
2023-02-16T01:05:37.622Z,44.60
2023-02-16T01:08:28.341Z,45.00
2023-02-16T01:11:10.147Z,45.20
2023-02-16T01:13:45.134Z,44.20
2023-02-16T01:16:16.208Z,43.60
2023-02-16T01:18:44.975Z,43.30
2023-02-16T01:21:15.324Z,43.10
2023-02-16T01:23:43.553Z,42.30
2023-02-16T01:26:15.774Z,42.70
2023-02-16T01:28:45.946Z,42.90
2023-02-16T01:31:18.048Z,42.60
2023-02-16T01:33:46.369Z,41.90
2023-02-16T01:36:23.955Z,41.60
2023-02-16T01:38:52.379Z,41.50
2023-02-16T01:41:33.583Z,41.70
2023-02-16T01:44:05.260Z,41.90
2023-02-16T01:46:40.598Z,42.20
2023-02-16T01:49:16.267Z,42.40
2023-02-16T01:51:52.555Z,42.40
2023-02-16T01:54:33.649Z,42.30
2023-02-16T01:57:06.841Z,42.20
2023-02-16T02:00:00.888Z,42.40
2023-02-16T02:02:33.828Z,42.50
2023-02-16T02:05:25.158Z,42.90
2023-02-16T02:07:57.699Z,43.90
2023-02-16T02:10:31.912Z,44.50
2023-02-16T02:13:05.969Z,43.80
2023-02-16T02:15:37.681Z,43.10
2023-02-16T02:18:07.142Z,43.10
2023-02-16T02:21:04.614Z,42.50
2023-02-16T02:23:56.259Z,42.60
2023-02-16T02:26:59.948Z,42.80
2023-02-16T02:29:56.435Z,43.10
2023-02-16T02:32:34.452Z,44.00
2023-02-16T02:35:15.027Z,44.60
2023-02-16T02:37:50.763Z,45.00
2023-02-16T02:40:29.607Z,45.80
2023-02-16T02:43:08.052Z,45.60
2023-02-16T02:45:44.563Z,45.70
2023-02-16T02:48:12.741Z,45.30
2023-02-16T02:51:07.764Z,45.80
2023-02-16T02:53:41.032Z,45.30
2023-02-16T02:56:29.321Z,46.10
2023-02-16T02:59:21.143Z,45.80
2023-02-16T03:01:54.561Z,46.40
2023-02-16T03:04:27.265Z,47.50
2023-02-16T03:07:01.635Z,48.30
2023-02-16T03:09:30.120Z,48.80
2023-02-16T03:12:21.197Z,50.10
2023-02-16T03:14:53.928Z,51.40
2023-02-16T03:17:42.310Z,52.50
2023-02-16T03:20:32.951Z,53.40
2023-02-16T03:23:22.871Z,54.20
2023-02-16T03:26:10.889Z,54.70
2023-02-16T03:29:00.405Z,54.70
2023-02-16T03:31:33.561Z,54.90
2023-02-16T03:34:02.483Z,55.40
2023-02-16T03:36:34.018Z,55.50
2023-02-16T03:39:03.176Z,55.10
2023-02-16T03:41:34.255Z,55.30
2023-02-16T03:44:02.443Z,55.50
2023-02-16T03:46:32.332Z,55.40
2023-02-16T03:49:00.557Z,54.90
2023-02-16T03:51:28.772Z,55.20
2023-02-16T03:53:56.917Z,55.30
2023-02-16T03:56:25.103Z,55.50
2023-02-16T03:58:53.280Z,55.70
2023-02-16T04:01:21.462Z,55.20
2023-02-16T04:03:51.018Z,55.30
2023-02-16T04:06:19.238Z,55.50
2023-02-16T04:08:47.652Z,55.20
2023-02-16T04:11:47.892Z,55.30
2023-02-16T04:14:16.257Z,55.50
2023-02-16T04:16:44.541Z,54.90
2023-02-16T04:19:14.134Z,54.10
2023-02-16T04:21:42.921Z,54.50
2023-02-16T04:24:11.120Z,54.80
2023-02-16T04:26:41.394Z,54.30
2023-02-16T04:29:09.576Z,53.60
2023-02-16T04:31:37.852Z,53.10
2023-02-16T04:34:06.134Z,52.00
2023-02-16T04:36:35.701Z,52.00
2023-02-16T04:39:03.943Z,52.00
2023-02-16T04:41:32.152Z,52.60
2023-02-16T04:44:00.297Z,52.60
2023-02-16T04:46:28.524Z,52.30
2023-02-16T04:48:57.026Z,52.40
2023-02-16T04:51:25.178Z,52.30
2023-02-16T04:53:54.743Z,51.90
2023-02-16T04:56:22.935Z,52.00
2023-02-16T04:58:51.144Z,52.60
2023-02-16T05:01:21.283Z,52.60
2023-02-16T05:03:50.083Z,53.10
2023-02-16T05:06:19.020Z,52.90
2023-02-16T05:08:47.501Z,52.00
2023-02-16T05:11:33.796Z,51.90
2023-02-16T05:14:22.455Z,50.70
2023-02-16T05:16:50.788Z,50.00
2023-02-16T05:19:21.717Z,49.90
2023-02-16T05:21:49.902Z,49.10
2023-02-16T05:24:20.987Z,48.20
2023-02-16T05:26:50.495Z,48.60
2023-02-16T05:29:20.085Z,48.60
2023-02-16T05:31:48.399Z,49.30
2023-02-16T05:34:16.595Z,51.30
2023-02-16T05:36:44.818Z,53.00
2023-02-16T05:39:14.975Z,54.00
2023-02-16T05:41:43.113Z,53.80
2023-02-16T05:44:15.198Z,53.60
2023-02-16T05:46:44.186Z,53.30
2023-02-16T05:49:12.490Z,53.80
2023-02-16T05:51:40.804Z,54.20
2023-02-16T05:54:10.665Z,54.50
2023-02-16T05:56:40.483Z,55.40
2023-02-16T05:59:10.481Z,55.30
2023-02-16T06:01:40.918Z,55.70
2023-02-16T06:04:09.650Z,56.20
2023-02-16T06:06:39.532Z,56.20
2023-02-16T06:09:09.873Z,55.80
2023-02-16T06:11:38.403Z,55.20
2023-02-16T06:14:09.256Z,54.50
2023-02-16T06:16:40.423Z,54.80
2023-02-16T06:19:09.572Z,55.20
2023-02-16T06:21:38.413Z,54.50
2023-02-16T06:24:07.964Z,54.10
2023-02-16T06:26:36.624Z,53.70
2023-02-16T06:29:05.505Z,53.80
2023-02-16T06:31:36.353Z,53.50
2023-02-16T06:34:06.571Z,52.90
2023-02-16T06:36:35.490Z,52.60
2023-02-16T06:39:03.733Z,52.60
2023-02-16T06:41:37.821Z,52.60
2023-02-16T06:44:07.800Z,52.10
2023-02-16T06:46:36.081Z,52.00
2023-02-16T06:49:05.697Z,50.90
2023-02-16T06:51:34.616Z,50.80
2023-02-16T06:54:02.836Z,51.20
2023-02-16T06:56:31.016Z,50.70
2023-02-16T06:58:59.162Z,50.30
2023-02-16T07:01:27.728Z,50.10
2023-02-16T07:03:57.794Z,51.10
2023-02-16T07:06:29.086Z,52.50
2023-02-16T07:08:57.347Z,52.60
2023-02-16T07:11:25.497Z,52.80
2023-02-16T07:13:53.831Z,53.60
2023-02-16T07:16:22.194Z,54.30
2023-02-16T07:18:51.341Z,54.20
2023-02-16T07:21:19.515Z,54.10
2023-02-16T07:23:49.081Z,53.80
2023-02-16T07:26:17.300Z,54.00
2023-02-16T07:28:45.487Z,54.00
2023-02-16T07:31:15.935Z,53.60
2023-02-16T07:33:44.950Z,54.50
2023-02-16T07:36:15.753Z,55.10
2023-02-16T07:38:44.020Z,55.30
2023-02-16T07:41:16.675Z,55.50
2023-02-16T07:43:44.860Z,55.80
2023-02-16T07:46:14.377Z,55.40
2023-02-16T07:48:51.246Z,54.40
2023-02-16T07:51:23.576Z,54.60
2023-02-16T07:53:51.945Z,55.00
2023-02-16T07:56:23.034Z,55.70
2023-02-16T07:58:53.082Z,56.00
2023-02-16T08:01:21.942Z,55.30
2023-02-16T08:03:50.698Z,55.40
2023-02-16T08:06:20.124Z,53.40
2023-02-16T08:08:48.668Z,53.40
2023-02-16T08:11:18.836Z,54.40
2023-02-16T08:13:49.344Z,54.40
2023-02-16T08:16:22.955Z,54.60
2023-02-16T08:18:52.127Z,54.20
2023-02-16T08:21:23.577Z,55.00
2023-02-16T08:23:55.729Z,54.80
2023-02-16T08:26:25.108Z,55.00
2023-02-16T08:28:58.637Z,55.30
2023-02-16T08:31:29.893Z,55.50
2023-02-16T08:34:04.040Z,55.80
2023-02-16T08:36:37.045Z,55.70
2023-02-16T08:39:09.834Z,55.90
2023-02-16T08:41:41.445Z,55.50
2023-02-16T08:44:12.074Z,55.60
2023-02-16T08:46:44.685Z,55.50
2023-02-16T08:49:14.149Z,55.90
2023-02-16T08:51:45.098Z,56.00
2023-02-16T08:54:17.316Z,55.60
2023-02-16T08:56:49.207Z,56.20
2023-02-16T08:59:20.639Z,55.60
2023-02-16T09:01:49.507Z,54.60
2023-02-16T09:04:21.901Z,54.00
2023-02-16T09:06:53.342Z,53.70
2023-02-16T09:09:24.713Z,54.00
2023-02-16T09:11:52.869Z,54.40
2023-02-16T09:14:23.080Z,54.70
2023-02-16T09:16:51.488Z,54.60
2023-02-16T09:19:21.697Z,54.20
2023-02-16T09:21:51.997Z,54.10
2023-02-16T09:24:20.226Z,54.00
2023-02-16T09:26:49.677Z,52.80
2023-02-16T09:29:18.106Z,53.00
2023-02-16T09:31:47.677Z,52.30
2023-02-16T09:34:18.864Z,52.10
2023-02-16T09:36:48.252Z,51.50
2023-02-16T09:39:17.558Z,51.60
2023-02-16T09:42:01.116Z,51.10
2023-02-16T09:44:39.274Z,51.20
2023-02-16T09:47:22.030Z,50.70
2023-02-16T09:49:51.222Z,50.70
2023-02-16T09:52:24.297Z,50.90
2023-02-16T09:54:55.182Z,50.10
2023-02-16T09:57:39.581Z,49.80
2023-02-16T10:00:23.391Z,51.10
2023-02-16T10:03:01.966Z,51.30
2023-02-16T10:05:37.423Z,51.40
2023-02-16T10:08:09.426Z,51.10
2023-02-16T10:10:49.311Z,51.60
2023-02-16T10:13:24.982Z,50.90
2023-02-16T10:15:55.109Z,50.90
2023-02-16T10:18:35.516Z,51.80
2023-02-16T10:21:09.032Z,51.60
2023-02-16T10:23:46.378Z,51.10
2023-02-16T10:26:19.551Z,50.70
2023-02-16T10:28:50.204Z,50.30
2023-02-16T10:31:30.062Z,49.80
2023-02-16T10:34:22.832Z,49.30
2023-02-16T10:37:16.861Z,50.90
2023-02-16T10:39:49.082Z,51.00
2023-02-16T10:42:26.089Z,50.70
2023-02-16T10:45:01.221Z,50.60
2023-02-16T10:47:36.740Z,50.00
2023-02-16T10:50:08.947Z,50.30
2023-02-16T10:52:41.679Z,50.00
2023-02-16T10:55:10.041Z,49.80
2023-02-16T10:57:38.255Z,49.60
2023-02-16T11:00:10.349Z,49.80
2023-02-16T11:02:41.866Z,48.90
2023-02-16T11:05:38.131Z,48.60
2023-02-16T11:08:11.248Z,49.60
2023-02-16T11:10:48.789Z,50.10
2023-02-16T11:13:32.402Z,49.90
2023-02-16T11:16:05.005Z,49.80
2023-02-16T11:18:37.828Z,49.20
2023-02-16T11:21:09.575Z,49.10
2023-02-16T11:23:39.650Z,49.50
2023-02-16T11:26:24.047Z,49.20
2023-02-16T11:28:53.151Z,49.50
2023-02-16T11:31:33.584Z,49.30
2023-02-16T11:34:06.120Z,49.10
2023-02-16T11:36:40.349Z,48.40
2023-02-16T11:39:18.137Z,48.70
2023-02-16T11:41:49.336Z,49.00
2023-02-16T11:44:28.479Z,48.70
2023-02-16T11:46:57.909Z,48.50
2023-02-16T11:49:33.203Z,48.90
2023-02-16T11:52:20.905Z,49.20
2023-02-16T11:54:53.385Z,49.20
2023-02-16T11:57:26.956Z,49.00
2023-02-16T11:59:56.561Z,49.10
2023-02-16T12:02:48.599Z,48.50
2023-02-16T12:05:39.195Z,48.90
2023-02-16T12:08:35.968Z,48.60
2023-02-16T12:11:18.882Z,48.30
2023-02-16T12:13:53.761Z,48.40
2023-02-16T12:16:31.195Z,47.50
2023-02-16T12:19:19.508Z,47.50
2023-02-16T12:21:51.735Z,46.80
2023-02-16T12:24:35.276Z,45.30
2023-02-16T12:27:05.495Z,45.10
2023-02-16T12:29:47.720Z,45.30
2023-02-16T12:32:30.175Z,45.50
2023-02-16T12:35:13.432Z,44.30
2023-02-16T12:37:49.296Z,44.50
2023-02-16T12:40:30.109Z,44.50
2023-02-16T12:43:08.459Z,44.80
2023-02-16T12:45:39.847Z,44.80
2023-02-16T12:48:20.953Z,44.40
2023-02-16T12:50:52.665Z,45.70
2023-02-16T12:53:28.049Z,46.10
2023-02-16T12:56:01.673Z,45.50
2023-02-16T12:58:32.043Z,45.20
2023-02-16T13:01:04.317Z,45.40
2023-02-16T13:03:42.604Z,46.40
2023-02-16T13:06:19.514Z,46.60
2023-02-16T13:08:56.885Z,46.60
2023-02-16T13:11:33.830Z,47.50
2023-02-16T13:14:05.621Z,46.50
2023-02-16T13:16:42.176Z,46.60
2023-02-16T13:19:13.105Z,46.80
2023-02-16T13:22:14.613Z,47.10
2023-02-16T13:24:54.924Z,46.40
2023-02-16T13:27:37.006Z,46.70
2023-02-16T13:30:45.853Z,46.80
2023-02-16T13:33:45.007Z,47.40
2023-02-16T13:36:39.001Z,46.40
2023-02-16T13:39:40.638Z,46.10
2023-02-16T13:42:46.912Z,46.30
2023-02-16T13:45:17.928Z,45.40
2023-02-16T13:47:46.430Z,44.00
2023-02-16T13:50:33.836Z,44.10
2023-02-16T13:53:13.868Z,45.00
2023-02-16T13:55:43.804Z,45.00
2023-02-16T13:58:36.641Z,46.20
2023-02-16T14:01:38.728Z,45.70
2023-02-16T14:04:12.874Z,44.90
2023-02-16T14:06:42.777Z,44.80
2023-02-16T14:09:36.263Z,44.90
2023-02-16T14:12:21.178Z,44.80
2023-02-16T14:15:01.824Z,45.20
2023-02-16T14:17:32.979Z,45.70
2023-02-16T14:20:04.781Z,44.70
2023-02-16T14:22:48.912Z,45.10
2023-02-16T14:25:36.258Z,44.70
2023-02-16T14:28:07.527Z,45.10
2023-02-16T14:30:50.683Z,45.70
2023-02-16T14:33:23.525Z,45.80
2023-02-16T14:36:09.063Z,45.90
2023-02-16T14:38:39.312Z,46.10
2023-02-16T14:41:13.804Z,45.80
2023-02-16T14:43:44.988Z,45.60
2023-02-16T14:46:45.068Z,45.40
2023-02-16T14:49:51.381Z,45.30
2023-02-16T14:53:07.612Z,45.20
2023-02-16T14:56:08.560Z,45.50
2023-02-16T14:58:46.410Z,45.20
2023-02-16T15:01:17.355Z,44.40
2023-02-16T15:03:50.273Z,45.00
2023-02-16T15:06:26.455Z,44.40
2023-02-16T15:08:58.192Z,44.10
2023-02-16T15:11:31.805Z,43.80
2023-02-16T15:14:12.090Z,43.60
2023-02-16T15:16:42.198Z,43.40
2023-02-16T15:19:18.527Z,43.00
2023-02-16T15:21:46.779Z,42.40
2023-02-16T15:24:24.176Z,42.90
2023-02-16T15:27:01.466Z,43.10
2023-02-16T15:29:31.112Z,43.50
2023-02-16T15:32:02.002Z,43.80
2023-02-16T15:34:35.181Z,44.00
2023-02-16T15:37:20.251Z,44.00
2023-02-16T15:40:08.770Z,44.60
2023-02-16T15:42:43.324Z,44.60
2023-02-16T15:45:32.537Z,43.40
2023-02-16T15:48:32.144Z,44.10
2023-02-16T15:51:12.059Z,44.20
2023-02-16T15:53:48.141Z,44.70
2023-02-16T15:56:27.926Z,44.00
2023-02-16T15:58:57.495Z,44.60
2023-02-16T16:01:33.075Z,44.60
2023-02-16T16:04:09.169Z,45.10
2023-02-16T16:06:41.663Z,45.40
2023-02-16T16:09:21.397Z,45.60
2023-02-16T16:11:51.729Z,45.50
2023-02-16T16:14:20.456Z,45.00
2023-02-16T16:16:49.060Z,44.90
2023-02-16T16:19:19.197Z,45.70
2023-02-16T16:21:51.329Z,45.10
2023-02-16T16:24:33.565Z,44.80
2023-02-16T16:27:05.662Z,44.90
2023-02-16T16:29:39.184Z,44.70
2023-02-16T16:32:08.429Z,44.30
2023-02-16T16:34:38.802Z,43.90
2023-02-16T16:37:23.340Z,43.70
2023-02-16T16:40:05.845Z,44.90
2023-02-16T16:42:38.998Z,46.70
2023-02-16T16:45:28.322Z,46.60
2023-02-16T16:48:01.574Z,47.40
2023-02-16T16:50:37.734Z,46.70
2023-02-16T16:53:43.925Z,46.60
2023-02-16T16:56:14.286Z,46.60
2023-02-16T16:58:43.068Z,47.80
2023-02-16T17:01:13.748Z,48.00
2023-02-16T17:03:44.911Z,48.50
2023-02-16T17:06:14.061Z,49.80
2023-02-16T17:08:44.384Z,49.60
2023-02-16T17:11:16.988Z,49.80
2023-02-16T17:13:45.772Z,50.50
2023-02-16T17:16:18.283Z,50.80
2023-02-16T17:18:46.541Z,50.80
2023-02-16T17:21:15.788Z,50.90
2023-02-16T17:23:52.902Z,51.40
2023-02-16T17:26:22.253Z,51.50
2023-02-16T17:28:50.735Z,51.60
2023-02-16T17:31:19.962Z,51.90
2023-02-16T17:33:48.185Z,52.30
2023-02-16T17:36:17.645Z,52.90
2023-02-16T17:38:47.190Z,52.90
2023-02-16T17:41:21.669Z,52.20
2023-02-16T17:43:50.212Z,53.20
2023-02-16T17:46:19.036Z,54.90
2023-02-16T17:48:50.375Z,55.50
2023-02-16T17:51:20.941Z,54.90
2023-02-16T17:53:50.853Z,55.30
2023-02-16T17:56:22.139Z,55.50
2023-02-16T17:58:51.051Z,55.60
2023-02-16T18:01:21.265Z,55.50
2023-02-16T18:03:49.881Z,55.40
2023-02-16T18:06:20.178Z,55.40
2023-02-16T18:08:50.060Z,55.20
2023-02-16T18:11:18.344Z,54.80
2023-02-16T18:13:46.568Z,54.60
2023-02-16T18:16:18.655Z,54.70
2023-02-16T18:18:47.208Z,55.00
2023-02-16T18:21:15.508Z,55.20
2023-02-16T18:23:43.684Z,55.30
2023-02-16T18:26:15.907Z,55.20
2023-02-16T18:28:44.900Z,54.80
2023-02-16T18:31:14.585Z,53.50
2023-02-16T18:33:44.873Z,53.10
2023-02-16T18:36:13.119Z,52.50
2023-02-16T18:38:44.441Z,52.90
2023-02-16T18:41:14.548Z,52.70
2023-02-16T18:43:42.812Z,52.40
2023-02-16T18:46:11.926Z,52.40
2023-02-16T18:48:41.356Z,52.20
2023-02-16T18:51:10.751Z,51.90
2023-02-16T18:53:39.348Z,51.80
2023-02-16T18:56:08.704Z,52.30
2023-02-16T18:58:38.417Z,52.50
2023-02-16T19:01:14.194Z,53.10
2023-02-16T19:03:42.449Z,53.30
2023-02-16T19:06:10.694Z,54.00
2023-02-16T19:08:41.542Z,54.80
2023-02-16T19:11:12.562Z,54.20
2023-02-16T19:13:44.934Z,54.00
2023-02-16T19:16:13.431Z,53.10
2023-02-16T19:18:41.601Z,53.90
2023-02-16T19:21:11.256Z,53.70
2023-02-16T19:23:41.773Z,53.80
2023-02-16T19:26:12.037Z,54.00
2023-02-16T19:28:42.026Z,54.10
2023-02-16T19:31:18.583Z,54.00
2023-02-16T19:33:47.453Z,53.20
2023-02-16T19:36:19.152Z,52.90
2023-02-16T19:38:48.746Z,53.00
2023-02-16T19:41:23.083Z,53.30
2023-02-16T19:43:56.077Z,54.00
2023-02-16T19:46:26.115Z,54.00
2023-02-16T19:48:55.948Z,53.90
2023-02-16T19:51:24.361Z,53.50
2023-02-16T19:53:55.642Z,52.90
2023-02-16T19:56:26.076Z,52.50
2023-02-16T19:58:57.607Z,52.30
2023-02-16T20:01:28.095Z,52.00
2023-02-16T20:03:57.741Z,52.20
2023-02-16T20:06:30.788Z,52.90
2023-02-16T20:08:59.967Z,52.40
2023-02-16T20:11:31.949Z,52.70
2023-02-16T20:14:02.351Z,52.50
2023-02-16T20:16:30.851Z,52.00
2023-02-16T20:18:59.859Z,52.40
2023-02-16T20:21:30.038Z,53.30
2023-02-16T20:24:01.888Z,53.70
2023-02-16T20:26:34.138Z,53.40
2023-02-16T20:29:05.646Z,53.70
2023-02-16T20:31:36.684Z,53.10
2023-02-16T20:34:05.687Z,52.30
2023-02-16T20:36:34.763Z,52.90
2023-02-16T20:39:03.003Z,53.40
2023-02-16T20:41:31.248Z,52.50
2023-02-16T20:43:59.441Z,52.00
2023-02-16T20:46:29.011Z,51.90
2023-02-16T20:48:57.267Z,51.90
2023-02-16T20:51:25.678Z,51.40
2023-02-16T20:53:53.847Z,51.50
2023-02-16T20:56:23.756Z,51.90
2023-02-16T20:58:53.439Z,52.40
2023-02-16T21:01:23.797Z,52.10
2023-02-16T21:03:56.871Z,51.80
2023-02-16T21:06:25.604Z,52.50
2023-02-16T21:08:53.991Z,53.40
2023-02-16T21:11:23.725Z,53.60
2023-02-16T21:13:51.952Z,53.30
2023-02-16T21:16:23.340Z,53.50
2023-02-16T21:18:53.363Z,53.70
2023-02-16T21:21:25.975Z,53.70
2023-02-16T21:23:55.685Z,54.00
2023-02-16T21:26:26.183Z,54.20
2023-02-16T21:28:55.307Z,54.40
2023-02-16T21:31:25.807Z,53.90
2023-02-16T21:33:55.390Z,53.50
2023-02-16T21:36:26.199Z,52.70
2023-02-16T21:38:54.945Z,52.90
2023-02-16T21:41:26.462Z,53.60
2023-02-16T21:44:01.283Z,53.80
2023-02-16T21:46:31.367Z,53.70
2023-02-16T21:49:00.136Z,54.10
2023-02-16T21:51:30.668Z,54.50
2023-02-16T21:54:02.066Z,54.10
2023-02-16T21:56:35.744Z,54.00
2023-02-16T21:59:06.094Z,54.10
2023-02-16T22:01:35.787Z,54.20
2023-02-16T22:04:06.277Z,54.10
2023-02-16T22:06:37.015Z,53.30
2023-02-16T22:09:07.135Z,53.10
2023-02-16T22:11:35.309Z,52.30
2023-02-16T22:14:04.401Z,51.50
2023-02-16T22:16:37.054Z,51.50
2023-02-16T22:19:08.788Z,51.80
2023-02-16T22:21:38.525Z,52.10
2023-02-16T22:24:07.873Z,52.30
2023-02-16T22:26:37.196Z,52.50
2023-02-16T22:29:07.235Z,53.00
2023-02-16T22:31:36.268Z,52.70
2023-02-16T22:34:08.235Z,52.70
2023-02-16T22:36:40.207Z,53.30
2023-02-16T22:39:11.171Z,53.90
2023-02-16T22:41:39.866Z,54.40
2023-02-16T22:44:08.348Z,53.60
2023-02-16T22:46:36.600Z,53.40
2023-02-16T22:49:06.409Z,53.00
2023-02-16T22:51:34.631Z,53.80
2023-02-16T22:54:03.252Z,53.90
2023-02-16T22:56:32.204Z,54.80
2023-02-16T22:59:01.606Z,54.90
2023-02-16T23:01:31.312Z,55.10
2023-02-16T23:04:00.855Z,55.20
2023-02-16T23:06:32.587Z,55.40
2023-02-16T23:09:03.900Z,55.70
2023-02-16T23:11:32.635Z,56.10
2023-02-16T23:14:01.199Z,56.10
2023-02-16T23:16:29.755Z,56.20
2023-02-16T23:19:00.160Z,55.50
2023-02-16T23:21:31.970Z,54.60
2023-02-16T23:24:01.233Z,54.90
2023-02-16T23:26:31.945Z,55.40
2023-02-16T23:29:02.201Z,56.10
2023-02-16T23:31:33.516Z,56.30
2023-02-16T23:34:02.717Z,57.10
2023-02-16T23:36:38.259Z,56.70
2023-02-16T23:39:08.854Z,56.40
2023-02-16T23:41:37.448Z,56.40
2023-02-16T23:44:07.924Z,56.40
2023-02-16T23:46:40.820Z,56.70
2023-02-16T23:49:09.106Z,57.00
2023-02-16T23:51:38.888Z,57.10
2023-02-16T23:54:09.103Z,57.00
2023-02-16T23:56:37.250Z,57.00
2023-02-16T23:59:05.410Z,56.50
